Time;durP1;ratioP1;P1;durP2;ratioP2;P2;SDS_P1;SDS_P2;PMS_P1;PMS_P2;Temp;Humidity;BMP_temperature;BMP_pressure;BME280_temperature;BME280_humidity;BME280_pressure;Samples;Min_cycle;Max_cycle;Signal;HPM_P1;HPM_P2
2021/11/02 00:07:53;;;;;;;27.73;20.83;;;;;;;4.43;100.00;99383.63;21047080;27;20597;-58
2021/11/02 00:18:00;;;;;;;26.80;22.17;;;;;;;4.34;100.00;99394.69;21022992;28;20317;-65
2021/11/02 00:28:06;;;;;;;26.33;21.23;;;;;;;4.25;100.00;99374.91;21044967;28;20312;-63
2021/11/02 00:38:09;;;;;;;30.80;23.57;;;;;;;4.16;100.00;99378.03;21021369;28;20228;-71
2021/11/02 00:48:23;;;;;;;28.87;22.53;;;;;;;4.11;100.00;99350.16;21041337;28;20233;-60
2021/11/02 00:58:27;;;;;;;30.70;24.03;;;;;;;4.08;100.00;99350.34;21027466;27;20238;-59
2021/11/02 01:28:33;;;;;;;32.50;24.67;;;;;;;3.80;100.00;99335.09;20874241;27;20639;-66
2021/11/02 01:48:37;;;;;;;33.70;24.20;;;;;;;3.68;100.00;99299.66;20947835;27;20630;-63
2021/11/02 01:58:43;;;;;;;29.63;23.43;;;;;;;3.56;100.00;99295.03;20962195;28;20302;-66
2021/11/02 02:08:56;;;;;;;32.10;24.17;;;;;;;3.44;100.00;99279.84;20938126;28;20229;-66
2021/11/02 02:19:26;;;;;;;35.63;26.73;;;;;;;3.47;100.00;99292.88;20958032;28;20519;-60
2021/11/02 02:29:34;;;;;;;31.70;24.60;;;;;;;3.43;100.00;99294.81;20941064;28;20234;-63
2021/11/02 02:39:42;;;;;;;32.23;24.30;;;;;;;3.35;100.00;99281.19;20953078;28;20221;-59
2021/11/02 02:49:51;;;;;;;32.00;23.20;;;;;;;3.18;100.00;99311.03;20943849;28;20571;-59
2021/11/02 03:09:53;;;;;;;45.50;28.97;;;;;;;2.87;100.00;99273.97;21044900;27;21158;-63
2021/11/02 03:20:38;;;;;;;41.53;28.27;;;;;;;2.79;100.00;99266.44;21025320;28;20302;-67
2021/11/02 03:51:08;;;;;;;36.93;28.83;;;;;;;3.77;100.00;99224.44;20878968;28;20345;-67
2021/11/02 04:01:27;;;;;;;35.70;26.83;;;;;;;3.46;100.00;99217.34;20938786;28;20256;-69
2021/11/02 05:55:19;;;;;;;65.03;36.57;;;;;;;2.87;100.00;99227.41;20925229;28;20705;-63
2021/11/02 06:36:33;;;;;;;71.47;36.60;;;;;;;5.28;100.00;99219.28;21017686;27;20226;-67
2021/11/02 07:18:06;;;;;;;36.00;25.70;;;;;;;6.05;100.00;99217.13;21115579;27;20712;-66
2021/11/02 07:28:28;;;;;;;29.33;23.53;;;;;;;6.88;100.00;99235.63;20994091;28;20227;-61
2021/11/02 08:51:12;;;;;;;22.60;19.57;;;;;;;9.47;100.00;99199.13;20976887;28;20307;-62
2021/11/02 09:01:21;;;;;;;21.47;19.27;;;;;;;9.72;100.00;99197.09;20956565;28;20235;-66
2021/11/02 09:11:28;;;;;;;23.47;20.97;;;;;;;9.92;100.00;99200.84;20976579;28;20704;-62
2021/11/02 09:21:31;;;;;;;20.63;18.50;;;;;;;10.03;100.00;99181.34;20959886;28;20313;-61
2021/11/02 09:31:37;;;;;;;20.93;18.37;;;;;;;10.31;100.00;99191.50;20969012;28;20231;-61
2021/11/02 09:42:04;;;;;;;19.47;17.47;;;;;;;10.85;100.00;99190.63;20966703;28;20279;-63
2021/11/02 09:52:28;;;;;;;17.00;15.30;;;;;;;11.27;100.00;99191.50;20961393;28;20226;-64
2021/11/02 10:03:06;;;;;;;18.03;16.33;;;;;;;11.18;99.88;99193.13;20971696;28;20248;-65
2021/11/02 10:13:26;;;;;;;24.30;21.67;;;;;;;10.96;100.00;99161.22;20955278;28;20237;-60
2021/11/02 10:23:43;;;;;;;36.67;26.57;;;;;;;10.95;100.00;99146.16;20995143;28;20230;-68
2021/11/02 10:33:49;;;;;;;35.40;24.43;;;;;;;11.21;100.00;99151.13;20950060;28;20234;-72
2021/11/02 10:44:02;;;;;;;33.53;23.47;;;;;;;11.51;95.08;99135.09;20972618;28;20580;-59
2021/11/02 10:54:53;;;;;;;37.73;23.47;;;;;;;11.82;88.64;99127.97;20952402;28;20690;-69
2021/11/02 11:05:00;;;;;;;24.23;18.73;;;;;;;11.52;97.71;99120.78;20987074;28;20225;-59
2021/11/02 11:15:07;;;;;;;25.50;17.30;;;;;;;11.52;100.00;99129.63;20966801;28;20222;-61
2021/11/02 11:25:14;;;;;;;22.07;18.27;;;;;;;11.47;98.44;99134.53;20981983;28;20231;-63
2021/11/02 11:35:19;;;;;;;22.97;18.63;;;;;;;11.21;99.23;99137.78;20973046;28;20263;-69
2021/11/02 11:45:25;;;;;;;22.47;17.50;;;;;;;11.06;99.40;99130.09;20996191;28;20569;-65
2021/11/02 11:55:31;;;;;;;23.93;19.17;;;;;;;11.26;97.52;99108.81;20979039;28;20232;-60
2021/11/02 12:05:43;;;;;;;17.90;15.83;;;;;;;11.39;97.15;99117.47;20962319;28;20253;-69
2021/11/02 12:16:09;;;;;;;15.20;13.67;;;;;;;11.45;96.23;99124.97;21004028;28;20598;-67
2021/11/02 12:26:18;;;;;;;19.43;16.50;;;;;;;11.38;100.00;99129.13;20958507;28;20237;-70
2021/11/02 12:36:25;;;;;;;51.03;27.90;;;;;;;11.13;100.00;99125.91;20979340;28;20242;-62
2021/11/02 12:46:30;;;;;;;31.93;22.87;;;;;;;10.90;100.00;99135.03;20956193;28;20226;-62
2021/11/02 12:56:36;;;;;;;21.87;19.43;;;;;;;10.70;100.00;99143.88;20977216;28;20584;-63
2021/11/02 13:06:44;;;;;;;20.80;16.97;;;;;;;10.62;100.00;99152.53;20961262;28;20901;-59
2021/11/02 13:16:57;;;;;;;16.77;14.97;;;;;;;10.46;100.00;99158.25;20969455;28;20738;-67
2021/11/02 13:27:01;;;;;;;16.57;14.47;;;;;;;10.24;100.00;99153.00;20965736;28;20226;-60
2021/11/02 13:37:07;;;;;;;17.30;14.60;;;;;;;10.04;100.00;99154.56;20961865;28;20314;-62
2021/11/02 13:47:11;;;;;;;16.17;14.33;;;;;;;9.86;100.00;99147.22;20973074;28;20222;-65
2021/11/02 13:57:16;;;;;;;17.50;15.13;;;;;;;9.70;100.00;99159.09;20952223;28;20318;-66
2021/11/02 14:07:24;;;;;;;22.10;18.57;;;;;;;9.58;100.00;99153.88;20973575;28;20227;-68
2021/11/02 14:17:32;;;;;;;30.37;21.60;;;;;;;9.33;100.00;99146.97;20950659;28;20223;-73
2021/11/02 14:27:42;;;;;;;42.97;25.57;;;;;;;9.07;100.00;99148.13;20973374;28;20238;-69
2021/11/02 14:37:49;;;;;;;34.77;22.87;;;;;;;8.85;100.00;99149.75;20970143;28;20738;-63
2021/11/02 14:47:52;;;;;;;28.80;22.33;;;;;;;8.68;100.00;99142.22;20967987;28;20227;-66
2021/11/02 14:57:57;;;;;;;34.83;25.33;;;;;;;8.50;100.00;99143.59;20925086;28;20250;-61
2021/11/02 15:08:09;;;;;;;40.47;24.73;;;;;;;8.38;100.00;99139.19;20951351;28;20296;-61
2021/11/02 15:18:15;;;;;;;46.33;27.30;;;;;;;8.30;100.00;99132.59;20897874;28;20238;-67
2021/11/02 15:28:20;;;;;;;39.10;27.03;;;;;;;8.25;100.00;99134.72;20894550;28;20227;-69
2021/11/02 15:38:28;;;;;;;44.07;28.70;;;;;;;8.26;100.00;99128.47;20900939;28;20219;-58
2021/11/02 15:48:32;;;;;;;43.13;36.67;;;;;;;8.29;100.00;99130.91;20906005;28;20653;-60
2021/11/02 15:58:37;;;;;;;77.80;39.97;;;;;;;8.30;100.00;99134.41;20901342;28;20257;-67
2021/11/02 16:08:41;;;;;;;95.47;41.73;;;;;;;8.30;100.00;99143.22;20961642;28;20237;-72
2021/11/02 16:18:46;;;;;;;51.83;29.30;;;;;;;8.28;100.00;99142.50;20978166;28;20226;-58
2021/11/02 16:28:51;;;;;;;50.30;32.07;;;;;;;8.32;100.00;99134.34;20966528;28;20256;-62
2021/11/02 16:38:57;;;;;;;95.60;42.43;;;;;;;8.30;100.00;99148.53;20959912;28;20318;-60
2021/11/02 16:49:03;;;;;;;55.03;32.77;;;;;;;8.30;100.00;99142.38;20900661;28;20272;-64
2021/11/02 16:59:08;;;;;;;43.53;28.37;;;;;;;8.30;100.00;99142.38;20959083;28;20588;-60
2021/11/02 17:09:15;;;;;;;69.13;36.13;;;;;;;8.34;100.00;99148.31;20975294;28;20285;-59
2021/11/02 17:19:21;;;;;;;44.20;33.37;;;;;;;8.32;100.00;99134.34;20973859;28;20244;-66
2021/11/02 17:29:27;;;;;;;32.90;27.27;;;;;;;8.36;100.00;99135.78;20973737;28;20248;-58
2021/11/02 17:39:36;;;;;;;38.83;29.97;;;;;;;8.43;100.00;99137.03;20951248;28;20222;-62
2021/11/02 17:49:40;;;;;;;34.67;29.10;;;;;;;8.48;100.00;99135.72;20972615;28;20320;-59
2021/11/02 17:59:46;;;;;;;49.33;39.03;;;;;;;8.47;100.00;99133.16;20947044;28;20282;-60
2021/11/02 18:09:50;;;;;;;42.53;35.70;;;;;;;8.46;100.00;99136.78;20950988;28;20244;-59
2021/11/02 18:19:57;;;;;;;44.07;36.93;;;;;;;8.29;100.00;99141.53;20963591;28;20337;-60
2021/11/02 18:30:01;;;;;;;47.30;37.17;;;;;;;8.04;100.00;99157.56;20954843;28;20230;-58
2021/11/02 18:40:10;;;;;;;46.63;35.67;;;;;;;7.86;100.00;99142.94;20936695;28;20319;-59
2021/11/02 18:50:14;;;;;;;47.17;35.87;;;;;;;7.70;100.00;99150.31;20874334;28;20770;-54
2021/11/02 19:00:20;;;;;;;48.23;37.67;;;;;;;7.63;100.00;99149.03;20903028;28;20220;-62
2021/11/02 19:10:42;;;;;;;43.37;33.33;;;;;;;7.55;100.00;99158.41;20872521;28;20319;-56
2021/11/02 19:20:48;;;;;;;44.93;34.27;;;;;;;7.52;100.00;99161.28;20901709;28;20245;-55
2021/11/02 19:30:54;;;;;;;48.77;36.23;;;;;;;7.51;100.00;99169.34;20967885;28;20233;-61
2021/11/02 19:41:01;;;;;;;47.23;34.67;;;;;;;7.50;100.00;99183.56;20989317;28;20217;-55
2021/11/02 19:51:05;;;;;;;49.47;34.10;;;;;;;7.50;100.00;99184.41;21029153;27;20230;-56
2021/11/02 20:01:11;;;;;;;48.73;37.20;;;;;;;7.46;100.00;99188.25;21004992;28;20224;-56
2021/11/02 20:11:19;;;;;;;48.47;35.90;;;;;;;7.43;100.00;99193.78;20985893;28;20253;-59
2021/11/02 20:21:28;;;;;;;48.53;35.97;;;;;;;7.43;100.00;99188.47;20981726;28;20247;-59
2021/11/02 20:31:32;;;;;;;48.13;35.93;;;;;;;7.43;100.00;99193.78;20999523;28;20354;-57
2021/11/02 20:41:38;;;;;;;50.77;37.17;;;;;;;7.42;100.00;99197.38;20952889;28;20259;-66
2021/11/02 20:51:43;;;;;;;51.67;38.00;;;;;;;7.42;100.00;99180.59;20974621;28;20233;-64
2021/11/02 21:01:48;;;;;;;45.63;34.87;;;;;;;7.45;100.00;99189.22;21038574;28;20340;-58
2021/11/02 21:11:55;;;;;;;45.80;35.07;;;;;;;7.45;100.00;99191.88;21044414;28;21020;-57
2021/11/02 21:22:01;;;;;;;42.60;31.00;;;;;;;7.49;100.00;99198.66;20971737;28;20257;-72
2021/11/02 21:32:06;;;;;;;42.37;31.50;;;;;;;7.51;100.00;99202.03;20987795;28;20233;-67
2021/11/02 21:42:21;;;;;;;43.40;32.40;;;;;;;7.50;100.00;99195.03;21022080;28;20216;-63
2021/11/02 21:52:26;;;;;;;45.27;32.23;;;;;;;7.48;100.00;99186.34;21039302;28;20297;-68
2021/11/02 22:02:34;;;;;;;43.57;33.47;;;;;;;7.48;100.00;99190.81;21057053;28;20229;-64
2021/11/02 22:12:38;;;;;;;42.00;30.20;;;;;;;7.51;100.00;99191.44;21034134;27;20229;-64
2021/11/02 22:22:44;;;;;;;39.33;29.13;;;;;;;7.59;100.00;99189.09;21055767;28;20746;-66
2021/11/02 22:32:48;;;;;;;41.20;30.87;;;;;;;7.61;100.00;99186.31;21035421;28;20238;-64
2021/11/02 22:42:53;;;;;;;34.10;26.27;;;;;;;7.61;100.00;99199.59;21053536;28;20279;-67
2021/11/02 22:52:58;;;;;;;33.27;25.17;;;;;;;7.65;100.00;99194.94;21048536;27;20911;-60
2021/11/02 23:03:04;;;;;;;27.43;22.63;;;;;;;7.64;100.00;99196.72;21061159;28;20221;-65
2021/11/02 23:13:08;;;;;;;27.13;21.93;;;;;;;7.65;100.00;99192.28;21064825;28;20281;-61
2021/11/02 23:23:41;;;;;;;27.50;21.40;;;;;;;7.61;100.00;99182.84;21052310;28;20239;-69
2021/11/02 23:43:43;;;;;;;25.43;20.50;;;;;;;7.67;100.00;99190.38;21113604;27;20604;-67
2021/11/02 23:53:49;;;;;;;26.00;20.50;;;;;;;7.69;100.00;99189.31;21152149;27;20691;-65
